createdAt,value
2022-08-03T00:01:30.284Z,21.98
2022-08-03T00:04:34.213Z,21.93
2022-08-03T00:07:36.097Z,21.89
2022-08-03T00:10:38.457Z,21.75
2022-08-03T00:13:40.148Z,21.75
2022-08-03T00:16:41.797Z,21.68
2022-08-03T00:19:43.467Z,21.64
2022-08-03T00:22:45.154Z,21.47
2022-08-03T00:25:46.820Z,21.34
2022-08-03T00:28:49.865Z,21.27
2022-08-03T00:31:59.156Z,21.18
2022-08-03T00:35:08.048Z,21.05
2022-08-03T00:38:11.533Z,21.03
2022-08-03T00:41:13.228Z,20.95
2022-08-03T00:44:17.398Z,20.92
2022-08-03T00:47:19.202Z,20.96
2022-08-03T00:50:23.081Z,20.85
2022-08-03T00:53:25.598Z,20.93
2022-08-03T00:56:27.575Z,20.85
2022-08-03T00:59:30.256Z,20.80
2022-08-03T01:02:32.157Z,20.78
2022-08-03T01:05:45.601Z,20.79
2022-08-03T01:08:58.167Z,20.69
2022-08-03T01:12:18.999Z,20.58
2022-08-03T01:15:36.271Z,20.64
2022-08-03T01:19:09.030Z,20.62
2022-08-03T01:22:19.313Z,20.57
2022-08-03T01:25:37.726Z,20.63
2022-08-03T01:28:58.355Z,20.55
2022-08-03T01:33:03.007Z,20.55
2022-08-03T01:35:39.310Z,20.55
2022-08-03T01:39:04.175Z,20.55
2022-08-03T01:42:08.993Z,20.53
2022-08-03T01:45:13.299Z,20.46
2022-08-03T01:48:17.724Z,20.34
2022-08-03T01:51:21.041Z,20.32
2022-08-03T01:54:24.790Z,20.33
2022-08-03T01:57:29.505Z,20.32
2022-08-03T02:00:33.242Z,20.26
2022-08-03T02:03:59.695Z,20.15
2022-08-03T02:07:03.494Z,20.12
2022-08-03T02:10:07.189Z,20.09
2022-08-03T02:13:10.742Z,19.97
2022-08-03T02:16:14.074Z,19.95
2022-08-03T02:19:17.425Z,19.99
2022-08-03T02:22:19.148Z,19.97
2022-08-03T02:25:20.949Z,19.96
2022-08-03T02:28:32.631Z,19.92
2022-08-03T02:31:37.061Z,19.84
2022-08-03T02:34:42.058Z,19.86
2022-08-03T02:37:50.532Z,19.79
2022-08-03T02:40:55.816Z,19.73
2022-08-03T02:44:06.056Z,19.67
2022-08-03T02:47:12.586Z,19.74
2022-08-03T02:50:16.426Z,19.76
2022-08-03T02:53:19.484Z,19.78
2022-08-03T02:56:24.175Z,19.80
2022-08-03T02:59:28.344Z,19.73
2022-08-03T03:02:30.533Z,19.69
2022-08-03T03:05:51.852Z,19.67
2022-08-03T03:08:59.644Z,19.57
2022-08-03T03:12:03.057Z,19.55
2022-08-03T03:15:08.387Z,19.55
2022-08-03T03:18:11.034Z,19.43
2022-08-03T03:21:14.458Z,19.48
2022-08-03T03:24:17.198Z,19.49
2022-08-03T03:27:19.197Z,19.46
2022-08-03T03:30:22.806Z,19.38
2022-08-03T03:33:24.944Z,19.38
2022-08-03T03:36:26.627Z,19.33
2022-08-03T03:39:28.344Z,19.33
2022-08-03T03:42:30.309Z,19.24
2022-08-03T03:45:34.489Z,19.16
2022-08-03T03:48:36.360Z,19.10
2022-08-03T03:51:38.128Z,19.08
2022-08-03T03:54:44.742Z,19.05
2022-08-03T03:57:46.552Z,19.03
2022-08-03T04:00:48.324Z,19.09
2022-08-03T04:03:50.056Z,19.03
2022-08-03T04:07:10.447Z,18.99
2022-08-03T04:10:42.853Z,18.89
2022-08-03T04:13:48.962Z,18.92
2022-08-03T04:16:55.331Z,18.90
2022-08-03T04:19:58.934Z,18.91
2022-08-03T04:23:02.215Z,18.80
2022-08-03T04:26:09.646Z,18.80
2022-08-03T04:29:13.427Z,18.82
2022-08-03T04:32:16.104Z,18.84
2022-08-03T04:35:19.490Z,18.96
2022-08-03T04:38:22.652Z,18.95
2022-08-03T04:41:26.737Z,18.89
2022-08-03T04:44:29.873Z,18.88
2022-08-03T04:47:33.719Z,18.87
2022-08-03T04:50:36.010Z,18.88
2022-08-03T04:53:41.133Z,18.97
2022-08-03T04:56:43.871Z,18.92
2022-08-03T04:59:45.605Z,19.04
2022-08-03T05:02:47.458Z,19.10
2022-08-03T05:05:49.876Z,19.05
2022-08-03T05:08:52.995Z,19.02
2022-08-03T05:11:55.526Z,19.08
2022-08-03T05:14:57.100Z,19.03
2022-08-03T05:17:58.768Z,19.05
2022-08-03T05:21:01.238Z,19.12
2022-08-03T05:24:03.127Z,19.20
2022-08-03T05:27:05.557Z,19.19
2022-08-03T05:30:27.157Z,19.22
2022-08-03T05:33:30.738Z,19.28
2022-08-03T05:36:32.486Z,19.19
2022-08-03T05:39:34.730Z,19.36
2022-08-03T05:42:39.762Z,19.42
2022-08-03T05:45:41.743Z,19.43
2022-08-03T05:48:44.085Z,19.37
2022-08-03T05:51:46.200Z,19.41
2022-08-03T05:54:56.340Z,19.45
2022-08-03T05:57:59.466Z,19.53
2022-08-03T06:01:01.133Z,19.55
2022-08-03T06:04:02.846Z,19.60
2022-08-03T06:07:04.592Z,19.65
2022-08-03T06:10:36.658Z,19.69
2022-08-03T06:13:28.888Z,19.77
2022-08-03T06:16:30.664Z,19.81
2022-08-03T06:19:32.368Z,19.85
2022-08-03T06:22:34.029Z,19.98
2022-08-03T06:25:35.738Z,20.09
2022-08-03T06:28:52.567Z,20.20
2022-08-03T06:31:55.510Z,20.25
2022-08-03T06:34:57.096Z,20.41
2022-08-03T06:37:59.237Z,20.50
2022-08-03T06:41:02.007Z,20.58
2022-08-03T06:44:04.523Z,20.76
2022-08-03T06:47:06.577Z,20.89
2022-08-03T06:50:17.066Z,21.00
2022-08-03T06:53:21.519Z,21.09
2022-08-03T06:56:23.300Z,21.15
2022-08-03T07:00:09.049Z,21.26
2022-08-03T07:02:47.047Z,21.51
2022-08-03T07:05:49.289Z,21.81
2022-08-03T07:08:53.670Z,22.00
2022-08-03T07:11:57.304Z,22.25
2022-08-03T07:15:02.217Z,22.46
2022-08-03T07:18:04.666Z,22.65
2022-08-03T07:21:08.072Z,22.93
2022-08-03T07:24:09.898Z,23.21
2022-08-03T07:27:11.861Z,23.67
2022-08-03T07:30:15.439Z,24.02
2022-08-03T07:33:17.271Z,24.20
2022-08-03T07:36:19.310Z,24.52
2022-08-03T07:39:21.111Z,24.75
2022-08-03T07:42:24.100Z,25.07
2022-08-03T07:45:26.865Z,25.43
2022-08-03T07:48:28.742Z,25.56
2022-08-03T07:51:30.527Z,25.53
2022-08-03T07:54:32.325Z,25.74
2022-08-03T07:57:34.542Z,26.12
2022-08-03T08:00:36.990Z,26.33
2022-08-03T08:03:41.971Z,26.75
2022-08-03T08:06:54.919Z,27.50
2022-08-03T08:09:56.614Z,27.00
2022-08-03T08:12:58.684Z,27.04
2022-08-03T08:16:00.876Z,27.24
2022-08-03T08:19:02.645Z,27.28
2022-08-03T08:22:04.668Z,27.55
2022-08-03T08:25:07.708Z,27.62
2022-08-03T08:28:29.927Z,27.75
2022-08-03T08:31:31.184Z,28.01
2022-08-03T08:34:32.986Z,28.32
2022-08-03T08:37:36.004Z,28.53
2022-08-03T08:40:37.979Z,28.83
2022-08-03T08:43:39.631Z,29.39
2022-08-03T08:46:41.356Z,28.68
2022-08-03T08:50:03.877Z,29.00
2022-08-03T08:53:10.730Z,29.42
2022-08-03T08:56:22.953Z,29.51
2022-08-03T08:59:25.251Z,29.26
2022-08-03T09:02:30.601Z,29.20
2022-08-03T09:05:54.996Z,29.69
2022-08-03T09:08:54.730Z,29.13
2022-08-03T09:12:13.758Z,29.52
2022-08-03T09:15:19.477Z,29.65
2022-08-03T09:18:32.477Z,30.09
2022-08-03T09:21:35.082Z,30.05
2022-08-03T09:24:41.489Z,30.00
2022-08-03T09:27:45.570Z,30.33
2022-08-03T09:30:59.860Z,30.66
2022-08-03T09:34:12.775Z,30.73
2022-08-03T09:37:19.462Z,30.95
2022-08-03T09:40:36.718Z,31.25
2022-08-03T09:43:48.197Z,31.61
2022-08-03T09:46:57.293Z,31.85
2022-08-03T09:50:04.651Z,32.29
2022-08-03T09:53:06.623Z,32.35
2022-08-03T09:56:33.639Z,32.13
2022-08-03T09:59:32.374Z,31.40
2022-08-03T10:02:35.206Z,32.27
2022-08-03T10:05:38.384Z,33.07
2022-08-03T10:08:40.082Z,32.88
2022-08-03T10:11:43.073Z,33.39
2022-08-03T10:14:46.961Z,33.17
2022-08-03T10:17:48.895Z,33.31
2022-08-03T10:20:56.356Z,33.16
2022-08-03T10:23:58.322Z,33.31
2022-08-03T10:27:04.392Z,33.51
2022-08-03T10:30:09.023Z,32.94
2022-08-03T10:33:49.635Z,33.07
2022-08-03T10:36:41.482Z,33.48
2022-08-03T10:39:53.537Z,33.57
2022-08-03T10:42:59.652Z,34.44
2022-08-03T10:46:03.444Z,33.44
2022-08-03T10:49:06.616Z,33.20
2022-08-03T10:52:13.320Z,33.91
2022-08-03T10:55:54.942Z,34.31
2022-08-03T10:58:57.420Z,33.85
2022-08-03T11:02:01.058Z,33.84
2022-08-03T11:05:35.115Z,34.38
2022-08-03T11:08:37.639Z,34.20
2022-08-03T11:11:43.492Z,34.69
2022-08-03T11:14:48.884Z,34.18
2022-08-03T11:18:11.114Z,33.68
2022-08-03T11:21:13.228Z,33.69
2022-08-03T11:24:36.967Z,34.07
2022-08-03T11:27:38.884Z,34.96
2022-08-03T11:30:41.250Z,34.61
2022-08-03T11:34:02.828Z,34.33
2022-08-03T11:37:28.705Z,34.72
2022-08-03T11:40:49.059Z,34.92
2022-08-03T11:43:50.723Z,34.57
2022-08-03T11:46:52.437Z,34.94
2022-08-03T11:49:57.420Z,34.77
2022-08-03T11:52:59.190Z,34.79
2022-08-03T11:56:02.324Z,34.93
2022-08-03T11:59:19.924Z,34.86
2022-08-03T12:02:23.214Z,34.15
2022-08-03T12:05:36.406Z,34.57
2022-08-03T12:08:40.803Z,34.73
2022-08-03T12:11:51.072Z,34.54
2022-08-03T12:15:05.837Z,35.60
2022-08-03T12:18:16.552Z,35.30
2022-08-03T12:21:18.935Z,35.73
2022-08-03T12:24:20.502Z,36.19
2022-08-03T12:27:27.850Z,35.66
2022-08-03T12:30:30.100Z,36.39
2022-08-03T12:33:33.432Z,36.43
2022-08-03T12:36:36.083Z,36.24
2022-08-03T12:39:37.754Z,36.46
2022-08-03T12:42:59.829Z,36.72
2022-08-03T12:46:17.139Z,36.82
2022-08-03T12:49:19.720Z,36.75
2022-08-03T12:52:22.989Z,36.86
2022-08-03T12:55:25.374Z,37.04
2022-08-03T12:58:36.026Z,37.07
2022-08-03T13:01:37.891Z,37.40
2022-08-03T13:04:56.653Z,37.93
2022-08-03T13:07:58.790Z,37.56
2022-08-03T13:11:19.189Z,37.41
2022-08-03T13:14:21.003Z,37.93
2022-08-03T13:17:22.901Z,37.89
2022-08-03T13:20:24.914Z,37.89
2022-08-03T13:23:28.840Z,37.17
2022-08-03T13:26:30.563Z,36.96
2022-08-03T13:29:32.199Z,37.33
2022-08-03T13:32:34.270Z,37.99
2022-08-03T13:35:36.030Z,37.20
2022-08-03T13:38:37.814Z,37.47
2022-08-03T13:41:39.599Z,37.71
2022-08-03T13:44:41.413Z,37.32
2022-08-03T13:47:43.160Z,38.11
2022-08-03T13:50:45.155Z,37.66
2022-08-03T13:53:46.939Z,37.93
2022-08-03T13:56:53.051Z,37.89
2022-08-03T13:59:54.933Z,38.09
2022-08-03T14:03:17.379Z,37.91
2022-08-03T14:06:19.279Z,38.27
2022-08-03T14:09:21.130Z,38.02
2022-08-03T14:12:24.942Z,37.98
2022-08-03T14:15:28.553Z,38.30
2022-08-03T14:18:34.904Z,38.47
2022-08-03T14:21:41.878Z,37.52
2022-08-03T14:24:43.614Z,37.08
2022-08-03T14:27:45.362Z,37.19
2022-08-03T14:30:47.931Z,37.74
2022-08-03T14:33:49.634Z,37.62
2022-08-03T14:36:51.444Z,37.34
2022-08-03T14:40:00.952Z,37.37
2022-08-03T14:43:03.310Z,37.53
2022-08-03T14:46:05.031Z,37.48
2022-08-03T14:50:38.081Z,37.73
2022-08-03T14:52:28.478Z,36.79
2022-08-03T14:55:38.964Z,37.09
2022-08-03T14:58:51.862Z,37.58
2022-08-03T15:02:03.287Z,37.20
2022-08-03T15:05:07.698Z,37.04
2022-08-03T15:08:09.406Z,37.14
2022-08-03T15:11:11.183Z,38.03
2022-08-03T15:14:13.491Z,36.80
2022-08-03T15:17:16.583Z,37.15
2022-08-03T15:20:28.967Z,37.54
2022-08-03T15:23:38.312Z,37.80
2022-08-03T15:26:41.799Z,38.18
2022-08-03T15:30:07.359Z,38.19
2022-08-03T15:33:06.154Z,38.58
2022-08-03T15:36:07.914Z,38.66
2022-08-03T15:39:09.660Z,38.73
2022-08-03T15:42:11.718Z,38.67
2022-08-03T15:45:13.512Z,38.66
2022-08-03T15:48:20.194Z,38.62
2022-08-03T15:51:28.389Z,38.31
2022-08-03T15:54:30.100Z,38.47
2022-08-03T15:57:31.826Z,38.47
2022-08-03T16:00:34.021Z,37.90
2022-08-03T16:03:35.941Z,38.22
2022-08-03T16:06:38.063Z,38.73
2022-08-03T16:09:42.272Z,39.02
2022-08-03T16:12:45.832Z,38.59
2022-08-03T16:15:48.530Z,38.38
2022-08-03T16:18:50.225Z,38.60
2022-08-03T16:21:51.843Z,38.22
2022-08-03T16:24:55.059Z,38.46
2022-08-03T16:28:07.625Z,37.97
2022-08-03T16:31:14.527Z,37.67
2022-08-03T16:34:16.249Z,37.77
2022-08-03T16:37:37.748Z,38.15
2022-08-03T16:40:39.740Z,38.01
2022-08-03T16:43:41.500Z,37.99
2022-08-03T16:46:44.800Z,38.40
2022-08-03T16:49:54.467Z,38.06
2022-08-03T16:52:57.954Z,38.08
2022-08-03T16:56:00.142Z,37.77
2022-08-03T16:59:02.862Z,37.24
2022-08-03T17:02:10.149Z,36.77
2022-08-03T17:05:12.683Z,36.83
2022-08-03T17:08:16.041Z,37.04
2022-08-03T17:11:18.548Z,36.94
2022-08-03T17:14:22.699Z,36.90
2022-08-03T17:17:30.351Z,36.85
2022-08-03T17:20:50.940Z,36.56
2022-08-03T17:24:02.675Z,36.25
2022-08-03T17:27:09.286Z,36.32
2022-08-03T17:30:50.641Z,36.39
2022-08-03T17:33:54.652Z,36.28
2022-08-03T17:37:05.584Z,36.10
2022-08-03T17:40:08.347Z,35.75
2022-08-03T17:44:13.677Z,35.77
2022-08-03T17:46:31.826Z,35.87
2022-08-03T17:49:40.097Z,35.92
2022-08-03T17:52:48.389Z,35.72
2022-08-03T17:56:04.195Z,35.29
2022-08-03T17:59:16.421Z,35.36
2022-08-03T18:03:17.747Z,35.37
2022-08-03T18:06:28.906Z,34.95
2022-08-03T18:10:03.526Z,34.95
2022-08-03T18:13:02.875Z,34.76
2022-08-03T18:16:06.815Z,34.65
2022-08-03T18:19:13.761Z,34.46
2022-08-03T18:22:20.191Z,34.36
2022-08-03T18:25:45.618Z,34.13
2022-08-03T18:28:48.436Z,33.84
2022-08-03T18:32:02.470Z,33.55
2022-08-03T18:35:06.311Z,33.04
2022-08-03T18:38:16.770Z,32.63
2022-08-03T18:41:33.577Z,32.47
2022-08-03T18:44:46.476Z,32.34
2022-08-03T18:47:59.004Z,32.08
2022-08-03T18:51:28.922Z,31.85
2022-08-03T18:55:03.841Z,31.57
2022-08-03T18:58:15.916Z,31.42
2022-08-03T19:02:00.387Z,31.18
2022-08-03T19:04:53.841Z,31.05
2022-08-03T19:07:59.571Z,30.69
2022-08-03T19:11:06.123Z,30.27
2022-08-03T19:14:11.483Z,30.03
2022-08-03T19:17:14.274Z,29.96
2022-08-03T19:20:25.984Z,29.77
2022-08-03T19:23:30.784Z,29.62
2022-08-03T19:26:38.502Z,29.47
2022-08-03T19:29:58.678Z,29.50
2022-08-03T19:33:09.195Z,29.50
2022-08-03T19:36:13.615Z,29.36
2022-08-03T19:39:15.616Z,29.23
2022-08-03T19:42:28.695Z,29.04
2022-08-03T19:46:04.652Z,28.83
2022-08-03T19:49:04.895Z,28.72
2022-08-03T19:52:20.881Z,28.73
2022-08-03T19:55:28.782Z,28.67
2022-08-03T19:58:35.479Z,28.57
2022-08-03T20:01:50.924Z,28.52
2022-08-03T20:04:53.206Z,28.59
2022-08-03T20:07:58.952Z,28.57
2022-08-03T20:11:00.939Z,28.48
2022-08-03T20:14:04.914Z,28.42
2022-08-03T20:17:09.305Z,28.32
2022-08-03T20:20:11.484Z,28.23
2022-08-03T20:23:19.289Z,28.18
2022-08-03T20:26:23.961Z,28.09
2022-08-03T20:30:05.418Z,28.18
2022-08-03T20:32:52.878Z,28.14
2022-08-03T20:35:54.702Z,28.05
2022-08-03T20:42:21.444Z,27.92
2022-08-03T20:46:01.137Z,27.88
2022-08-03T20:48:48.798Z,27.89
2022-08-03T20:51:53.099Z,27.77
2022-08-03T20:54:55.906Z,27.69
2022-08-03T20:57:59.427Z,27.76
2022-08-03T21:01:02.758Z,27.69
2022-08-03T21:04:07.459Z,27.64
2022-08-03T21:07:17.916Z,27.49
2022-08-03T21:10:30.091Z,27.45
2022-08-03T21:13:13.534Z,27.98
2022-08-03T21:13:56.858Z,27.41
2022-08-03T21:17:01.657Z,27.35
2022-08-03T21:20:07.594Z,27.62
2022-08-03T21:23:11.086Z,27.58
2022-08-03T21:26:34.186Z,27.44
2022-08-03T21:29:53.073Z,27.42
2022-08-03T21:32:57.661Z,27.55
2022-08-03T21:36:00.276Z,27.67
2022-08-03T21:39:05.939Z,27.70
2022-08-03T21:42:08.644Z,27.61
2022-08-03T21:45:17.129Z,27.48
2022-08-03T21:48:21.637Z,27.75
2022-08-03T21:51:25.094Z,27.83
2022-08-03T21:54:33.834Z,27.27
2022-08-03T21:57:37.686Z,27.02
2022-08-03T22:00:43.442Z,26.75
2022-08-03T22:03:53.177Z,26.68
2022-08-03T22:06:56.013Z,26.63
2022-08-03T22:09:59.884Z,26.89
2022-08-03T22:13:01.572Z,27.04
2022-08-03T22:16:03.403Z,27.25
2022-08-03T22:19:05.156Z,27.24
2022-08-03T22:22:09.346Z,26.99
2022-08-03T22:25:15.926Z,26.63
2022-08-03T22:28:18.380Z,26.59
2022-08-03T22:31:30.768Z,26.49
2022-08-03T22:34:45.189Z,26.39
2022-08-03T22:37:49.670Z,26.46
2022-08-03T22:40:52.445Z,26.64
2022-08-03T22:43:54.732Z,26.73
2022-08-03T22:46:56.963Z,26.65
2022-08-03T22:50:32.344Z,26.54
2022-08-03T22:53:22.038Z,26.43
2022-08-03T22:56:24.031Z,26.14
2022-08-03T22:59:41.200Z,25.98
2022-08-03T23:02:45.596Z,26.17
2022-08-03T23:06:00.956Z,26.11
2022-08-03T23:09:07.366Z,26.13
2022-08-03T23:12:11.382Z,26.25
2022-08-03T23:15:13.998Z,26.10
2022-08-03T23:18:16.358Z,26.04
2022-08-03T23:21:20.173Z,25.93
2022-08-03T23:24:42.097Z,25.55
2022-08-03T23:27:45.351Z,25.41
2022-08-03T23:30:49.886Z,25.40
2022-08-03T23:34:16.790Z,25.33
2022-08-03T23:37:20.259Z,25.41
2022-08-03T23:40:29.512Z,25.29
2022-08-03T23:43:51.011Z,25.25
2022-08-03T23:46:54.179Z,25.11
2022-08-03T23:49:56.000Z,25.06
2022-08-03T23:53:25.755Z,24.97
2022-08-03T23:56:32.195Z,24.85
2022-08-03T23:59:57.041Z,24.70
